Boca Raton, Florida
Current Conditions -  °F | °C
As of 3:53 AM on Friday 19 Dec 2014 (Local Time) from KPMP Reporting Station
Clear Clear  
Wind Chill: 59°   Ceiling: Unl
Heat Index: 59°   Visibility: 10mi
Dew Point: 52°   Wind: 7mph
Humidity: 78%   Direction: 330°NNW
Pressure: 30.07"   Gusts: NA
Location:  26.35°N, 80.09°W
Report Text: KPMP 190853Z 33006KT 10SM CLR 15/11 A3007 RMK AO2 SLP182 T01500111 56008
Loading
Personal Weather Stations






























Interactive Weather Map New forecast layout! Learn more

10-Day Weather Forecast

Advertisements
Track Severe Weather on mobile